Terminal Aerodrome Forecast
Issued by NWS Huntsville, AL

Home | Current Version | Previous Version | Text Only | Print | Product List | Glossary On
Versions: 1 2 3 4 5 6 7 8 9 10 11 12 13 14 15 16 17 18 19 20 21 22 23 24 25 26 27 28 29 30 31 32 33 34 35
000
FTUS44 KHUN 071727
TAFMSL
TAF
KMSL 071727Z 0718/0818 22010G19KT P6SM SCT035
     FM080000 21007KT P6SM SCT030 SCT150 BKN250
     FM080600 19005KT P6SM SCT025 BKN035 BKN150
     FM081400 24010KT P6SM SCT035 BKN250=

USA.gov is the U.S. government's official web portal to all federal, state and local government web resources and services.